Time;durP1;ratioP1;P1;durP2;ratioP2;P2;SDS_P1;SDS_P2;PMS_P1;PMS_P2;Temp;Humidity;BMP_temperature;BMP_pressure;BME280_temperature;BME280_humidity;BME280_pressure;Samples;Min_cycle;Max_cycle;Signal;HPM_P1;HPM_P2
2023/06/16 00:02:13;;;;;;;6.93;3.20;;;;;;;;;;5058673;28;20185;-78
2023/06/16 00:04:40;;;;;;;4.20;2.97;;;;;;;;;;5057574;28;20178;-78
2023/06/16 00:07:06;;;;;;;4.90;3.13;;;;;;;;;;5051593;28;20170;-78
2023/06/16 00:09:31;;;;;;;4.95;2.70;;;;;;;;;;5058829;28;20174;-78
2023/06/16 00:11:57;;;;;;;4.38;2.97;;;;;;;;;;5057361;28;20177;-79
2023/06/16 00:14:22;;;;;;;4.10;3.10;;;;;;;;;;5054124;28;20185;-76
2023/06/16 00:16:47;;;;;;;3.78;2.53;;;;;;;;;;5054476;28;20180;-76
2023/06/16 00:19:13;;;;;;;5.05;3.25;;;;;;;;;;5053673;22;20226;-71
2023/06/16 00:21:41;;;;;;;4.72;2.70;;;;;;;;;;5045807;28;20306;-71
2023/06/16 00:24:07;;;;;;;4.60;2.80;;;;;;;;;;5046243;28;20261;-70
2023/06/16 00:26:32;;;;;;;7.18;2.90;;;;;;;;;;5041155;28;20652;-70
2023/06/16 00:28:57;;;;;;;5.25;3.55;;;;;;;;;;5038200;28;20208;-70
2023/06/16 00:31:25;;;;;;;5.57;3.10;;;;;;;;;;5020386;28;20183;-70
2023/06/16 00:33:50;;;;;;;3.33;2.72;;;;;;;;;;5030351;28;20666;-70
2023/06/16 00:36:15;;;;;;;4.13;2.67;;;;;;;;;;5027715;28;20190;-71
2023/06/16 00:38:40;;;;;;;3.45;2.53;;;;;;;;;;5013354;28;20260;-70
2023/06/16 00:41:06;;;;;;;3.13;2.70;;;;;;;;;;5026205;28;20589;-70
2023/06/16 00:43:31;;;;;;;3.78;2.83;;;;;;;;;;5026997;28;20201;-70
2023/06/16 00:45:56;;;;;;;4.60;2.65;;;;;;;;;;5033005;28;20184;-70
2023/06/16 00:48:21;;;;;;;4.13;2.88;;;;;;;;;;5033128;28;20194;-70
2023/06/16 00:50:47;;;;;;;5.05;2.90;;;;;;;;;;5028782;28;20197;-70
2023/06/16 00:53:12;;;;;;;3.42;2.80;;;;;;;;;;5027283;28;20185;-70
2023/06/16 00:55:37;;;;;;;3.53;2.50;;;;;;;;;;5026711;28;20190;-70
2023/06/16 00:58:03;;;;;;;3.30;2.88;;;;;;;;;;5011450;28;20679;-69
2023/06/16 01:00:31;;;;;;;4.25;2.70;;;;;;;;;;5027137;28;20206;-69
2023/06/16 01:02:56;;;;;;;4.57;2.38;;;;;;;;;;5032629;28;20652;-70
2023/06/16 01:05:23;;;;;;;5.40;2.90;;;;;;;;;;5020118;28;20189;-71
2023/06/16 01:08:00;;;;;;;4.40;2.65;;;;;;;;;;5031201;28;20194;-70
2023/06/16 01:10:45;;;;;;;5.45;2.88;;;;;;;;;;5031348;28;20496;-71
2023/06/16 01:13:17;;;;;;;5.85;3.40;;;;;;;;;;5012202;28;20178;-69
2023/06/16 01:15:43;;;;;;;5.85;3.20;;;;;;;;;;5026813;28;20272;-71
2023/06/16 01:18:09;;;;;;;3.67;2.75;;;;;;;;;;5033588;28;20249;-70
2023/06/16 01:20:53;;;;;;;5.18;3.22;;;;;;;;;;5026195;28;20236;-71
2023/06/16 01:23:33;;;;;;;3.80;2.65;;;;;;;;;;5033674;28;20185;-70
2023/06/16 01:26:01;;;;;;;4.90;3.20;;;;;;;;;;5034125;28;20175;-70
2023/06/16 01:28:28;;;;;;;3.33;2.70;;;;;;;;;;5028118;28;20644;-70
2023/06/16 01:30:53;;;;;;;4.25;3.30;;;;;;;;;;5014506;28;20536;-70
2023/06/16 01:33:20;;;;;;;5.07;3.35;;;;;;;;;;5035461;28;20217;-70
2023/06/16 01:35:46;;;;;;;4.68;2.90;;;;;;;;;;5032789;28;20579;-70
2023/06/16 01:38:12;;;;;;;7.50;3.60;;;;;;;;;;5021259;28;20290;-69
2023/06/16 01:40:37;;;;;;;4.55;2.97;;;;;;;;;;5025065;28;20200;-69
2023/06/16 01:43:03;;;;;;;4.10;3.10;;;;;;;;;;5027908;28;20170;-69
2023/06/16 01:45:29;;;;;;;7.10;3.08;;;;;;;;;;5027702;28;20203;-69
2023/06/16 01:47:55;;;;;;;4.35;3.28;;;;;;;;;;5004367;28;20201;-69
2023/06/16 01:50:20;;;;;;;4.70;2.88;;;;;;;;;;5015600;28;20179;-70
2023/06/16 01:52:45;;;;;;;4.43;3.20;;;;;;;;;;5031753;28;20218;-70
2023/06/16 01:55:11;;;;;;;4.95;2.42;;;;;;;;;;5032357;28;20659;-70
2023/06/16 01:57:36;;;;;;;4.78;2.85;;;;;;;;;;5023659;28;20222;-70
2023/06/16 02:00:11;;;;;;;3.50;2.97;;;;;;;;;;5030780;28;20233;-70
2023/06/16 02:02:38;;;;;;;6.20;2.88;;;;;;;;;;5025317;28;20632;-70
2023/06/16 02:05:04;;;;;;;7.15;3.58;;;;;;;;;;5031195;28;20186;-69
2023/06/16 02:07:33;;;;;;;4.22;3.40;;;;;;;;;;5030315;28;20202;-70
2023/06/16 02:09:58;;;;;;;7.20;3.28;;;;;;;;;;5005211;28;20182;-70
2023/06/16 02:12:24;;;;;;;5.18;3.28;;;;;;;;;;5026831;28;20187;-70
2023/06/16 02:14:50;;;;;;;4.82;3.22;;;;;;;;;;5023452;28;20544;-69
2023/06/16 02:17:15;;;;;;;5.03;3.20;;;;;;;;;;5029954;28;20174;-70
2023/06/16 02:19:40;;;;;;;5.47;2.78;;;;;;;;;;5026547;28;20200;-69
2023/06/16 02:22:06;;;;;;;2.97;2.42;;;;;;;;;;5010382;28;20179;-70
2023/06/16 02:24:31;;;;;;;10.93;3.17;;;;;;;;;;5031789;28;20178;-69
2023/06/16 02:26:56;;;;;;;5.80;3.40;;;;;;;;;;5031052;28;20221;-70
2023/06/16 02:29:22;;;;;;;4.10;3.30;;;;;;;;;;5027470;28;20285;-70
2023/06/16 02:31:47;;;;;;;4.80;3.00;;;;;;;;;;5027679;28;20280;-70
2023/06/16 02:34:13;;;;;;;5.53;3.28;;;;;;;;;;5024547;28;20273;-70
2023/06/16 02:36:38;;;;;;;3.97;3.13;;;;;;;;;;5022393;28;20186;-70
2023/06/16 02:39:04;;;;;;;4.35;3.00;;;;;;;;;;5020041;28;20651;-69
2023/06/16 02:41:29;;;;;;;4.45;3.40;;;;;;;;;;5029295;28;20644;-70
2023/06/16 02:43:54;;;;;;;4.70;3.35;;;;;;;;;;5029313;28;20178;-70
2023/06/16 02:46:19;;;;;;;4.70;3.25;;;;;;;;;;5006148;28;20186;-70
2023/06/16 02:48:45;;;;;;;6.60;3.38;;;;;;;;;;5023890;28;20194;-70
2023/06/16 02:51:10;;;;;;;6.55;3.47;;;;;;;;;;5020975;28;20236;-70
2023/06/16 02:53:35;;;;;;;5.05;2.97;;;;;;;;;;5026077;28;20174;-70
2023/06/16 02:56:00;;;;;;;7.20;3.35;;;;;;;;;;5025191;28;20675;-70
2023/06/16 02:58:25;;;;;;;6.18;4.32;;;;;;;;;;5027915;28;20202;-70
2023/06/16 03:00:51;;;;;;;6.53;3.15;;;;;;;;;;5026642;28;20209;-69
2023/06/16 03:03:16;;;;;;;3.78;3.25;;;;;;;;;;5022358;28;20175;-70
2023/06/16 03:05:41;;;;;;;5.50;3.42;;;;;;;;;;4998343;28;20192;-69
2023/06/16 03:08:07;;;;;;;7.30;3.15;;;;;;;;;;5028674;28;20747;-70
2023/06/16 03:10:32;;;;;;;7.15;3.83;;;;;;;;;;5020583;28;20177;-70
2023/06/16 03:12:57;;;;;;;5.50;3.92;;;;;;;;;;5034507;28;20264;-69
2023/06/16 03:15:27;;;;;;;4.03;3.42;;;;;;;;;;5034641;28;20602;-70
2023/06/16 03:17:52;;;;;;;6.38;3.90;;;;;;;;;;5034468;28;20209;-70
2023/06/16 03:20:17;;;;;;;5.22;3.90;;;;;;;;;;5036369;28;20293;-70
2023/06/16 03:22:42;;;;;;;6.35;3.55;;;;;;;;;;5035775;28;20174;-72
2023/06/16 03:25:08;;;;;;;5.07;3.63;;;;;;;;;;5028633;28;20597;-70
2023/06/16 03:27:33;;;;;;;5.05;3.28;;;;;;;;;;5033584;28;20202;-70
2023/06/16 03:29:58;;;;;;;6.22;4.07;;;;;;;;;;5036992;28;20182;-70
2023/06/16 03:32:24;;;;;;;6.07;3.28;;;;;;;;;;5036983;28;20174;-70
2023/06/16 03:34:49;;;;;;;5.82;3.40;;;;;;;;;;5034543;28;20186;-70
2023/06/16 03:37:15;;;;;;;3.88;2.97;;;;;;;;;;5033051;28;20182;-69
2023/06/16 03:39:40;;;;;;;6.38;3.30;;;;;;;;;;5034852;28;20530;-70
2023/06/16 03:42:06;;;;;;;5.03;3.05;;;;;;;;;;5036473;28;20174;-69
2023/06/16 03:44:31;;;;;;;6.57;4.35;;;;;;;;;;5017248;28;20178;-70
2023/06/16 03:46:56;;;;;;;6.35;4.22;;;;;;;;;;5034994;28;20316;-70
2023/06/16 03:49:21;;;;;;;4.30;3.60;;;;;;;;;;5035459;28;20275;-70
2023/06/16 03:51:46;;;;;;;5.05;3.35;;;;;;;;;;5032935;28;20175;-70
2023/06/16 03:54:12;;;;;;;6.28;3.35;;;;;;;;;;5036828;28;20323;-70
2023/06/16 03:56:37;;;;;;;5.47;4.03;;;;;;;;;;5031338;28;20193;-69
2023/06/16 03:59:03;;;;;;;5.88;3.20;;;;;;;;;;5017423;28;20742;-70
2023/06/16 04:01:29;;;;;;;4.38;3.63;;;;;;;;;;5032792;28;20285;-70
2023/06/16 04:03:54;;;;;;;6.15;3.22;;;;;;;;;;5035891;28;20591;-70
2023/06/16 04:06:19;;;;;;;6.57;3.63;;;;;;;;;;5033537;28;20190;-70
2023/06/16 04:08:46;;;;;;;4.57;3.22;;;;;;;;;;5017721;28;20205;-70
2023/06/16 04:11:11;;;;;;;4.57;3.47;;;;;;;;;;5029169;28;20233;-70
2023/06/16 04:13:36;;;;;;;7.10;3.60;;;;;;;;;;5031872;28;20190;-69
2023/06/16 04:16:01;;;;;;;6.07;3.10;;;;;;;;;;5034082;28;20248;-69
2023/06/16 04:18:27;;;;;;;7.63;3.50;;;;;;;;;;5031943;28;20691;-69
2023/06/16 04:20:52;;;;;;;4.20;3.03;;;;;;;;;;5028952;28;20234;-69
2023/06/16 04:23:17;;;;;;;4.57;3.13;;;;;;;;;;5012284;28;20263;-70
2023/06/16 04:25:43;;;;;;;4.93;3.42;;;;;;;;;;5016640;28;20645;-70
2023/06/16 04:28:13;;;;;;;6.10;3.63;;;;;;;;;;5036549;28;20186;-70
2023/06/16 04:30:39;;;;;;;5.53;3.40;;;;;;;;;;5032138;28;20206;-70
2023/06/16 04:33:05;;;;;;;4.72;3.63;;;;;;;;;;5032308;28;20715;-70
2023/06/16 04:35:31;;;;;;;4.15;3.30;;;;;;;;;;5016364;28;20289;-70
2023/06/16 04:37:57;;;;;;;8.15;3.63;;;;;;;;;;5011383;28;20198;-70
2023/06/16 04:40:26;;;;;;;5.97;3.83;;;;;;;;;;5032457;28;20675;-70
2023/06/16 04:42:51;;;;;;;4.35;3.08;;;;;;;;;;5027581;28;20597;-70
2023/06/16 04:45:17;;;;;;;7.15;4.03;;;;;;;;;;5004814;28;20171;-70
2023/06/16 04:47:45;;;;;;;11.10;3.25;;;;;;;;;;5032740;28;20229;-70
2023/06/16 04:50:10;;;;;;;5.70;3.92;;;;;;;;;;5032247;28;20229;-70
2023/06/16 04:52:36;;;;;;;6.20;3.90;;;;;;;;;;5026692;28;20182;-69
2023/06/16 04:55:02;;;;;;;5.13;3.53;;;;;;;;;;5029857;28;20712;-69
2023/06/16 04:57:27;;;;;;;6.97;3.88;;;;;;;;;;5011907;28;20198;-69
2023/06/16 04:59:52;;;;;;;4.78;3.08;;;;;;;;;;5007347;28;20224;-70
2023/06/16 05:02:18;;;;;;;4.57;3.15;;;;;;;;;;5029205;28;20217;-69
2023/06/16 05:04:43;;;;;;;4.93;3.22;;;;;;;;;;5030311;28;20255;-69
2023/06/16 05:07:10;;;;;;;5.03;3.72;;;;;;;;;;5029986;28;20178;-69
2023/06/16 05:09:35;;;;;;;6.00;3.50;;;;;;;;;;5008100;28;20256;-70
2023/06/16 05:12:01;;;;;;;6.57;3.50;;;;;;;;;;5027969;28;20665;-70
2023/06/16 05:14:26;;;;;;;5.25;3.30;;;;;;;;;;5033506;28;20744;-71
2023/06/16 05:16:51;;;;;;;6.95;3.58;;;;;;;;;;5025226;28;20265;-71
2023/06/16 05:19:16;;;;;;;10.33;3.83;;;;;;;;;;5030709;28;20222;-70
2023/06/16 05:21:42;;;;;;;11.30;3.80;;;;;;;;;;5034504;28;20459;-70
2023/06/16 05:24:07;;;;;;;10.77;4.47;;;;;;;;;;5032217;28;21281;-71
2023/06/16 05:26:32;;;;;;;9.10;3.92;;;;;;;;;;5023392;28;20171;-70
2023/06/16 05:28:57;;;;;;;6.30;3.58;;;;;;;;;;5030820;28;20194;-71
2023/06/16 05:31:23;;;;;;;8.02;3.55;;;;;;;;;;5032367;28;20200;-71
2023/06/16 05:33:48;;;;;;;6.40;4.55;;;;;;;;;;5030437;28;20224;-71
2023/06/16 05:36:13;;;;;;;6.07;3.28;;;;;;;;;;5034135;28;20241;-71
2023/06/16 05:38:38;;;;;;;5.93;3.63;;;;;;;;;;5034588;28;21056;-70
2023/06/16 05:41:03;;;;;;;6.03;3.50;;;;;;;;;;5030947;28;20455;-72
2023/06/16 05:43:29;;;;;;;4.55;3.33;;;;;;;;;;5028551;28;20416;-71
2023/06/16 05:45:54;;;;;;;4.90;3.50;;;;;;;;;;5031138;28;20186;-71
2023/06/16 05:48:19;;;;;;;6.63;2.90;;;;;;;;;;5021770;28;20225;-70
2023/06/16 05:50:44;;;;;;;5.68;3.50;;;;;;;;;;5028278;28;20210;-71
2023/06/16 05:53:10;;;;;;;4.13;3.70;;;;;;;;;;5026840;28;20265;-71
2023/06/16 05:55:35;;;;;;;4.80;3.42;;;;;;;;;;5029212;28;20237;-71
2023/06/16 05:58:00;;;;;;;8.60;3.70;;;;;;;;;;5014353;28;20229;-71
2023/06/16 06:00:26;;;;;;;4.95;3.53;;;;;;;;;;5024960;28;20458;-70
2023/06/16 06:02:51;;;;;;;8.60;4.10;;;;;;;;;;5013225;28;20209;-70
2023/06/16 06:05:16;;;;;;;8.82;3.90;;;;;;;;;;5029794;28;20189;-69
2023/06/16 06:07:42;;;;;;;7.40;3.70;;;;;;;;;;5023251;28;21045;-67
2023/06/16 06:10:07;;;;;;;5.72;3.95;;;;;;;;;;5029204;28;20265;-67
2023/06/16 06:12:32;;;;;;;7.35;3.83;;;;;;;;;;5024511;28;20583;-68
2023/06/16 06:14:57;;;;;;;5.32;3.65;;;;;;;;;;5032876;28;20178;-68
2023/06/16 06:20:00;;;;;;;4.22;3.10;;;;;;;;;;5062989;28;20225;-71
2023/06/16 06:22:31;;;;;;;6.50;3.53;;;;;;;;;;5059840;28;20192;-71
2023/06/16 06:24:57;;;;;;;5.10;3.13;;;;;;;;;;5046321;28;20421;-71
2023/06/16 06:27:22;;;;;;;4.47;3.67;;;;;;;;;;5057944;28;20806;-71
2023/06/16 06:29:47;;;;;;;5.70;3.63;;;;;;;;;;5039805;28;20244;-71
2023/06/16 06:32:13;;;;;;;6.27;3.57;;;;;;;;;;5031648;28;20436;-71
2023/06/16 06:34:38;;;;;;;3.33;2.63;;;;;;;;;;5032104;28;20407;-71
2023/06/16 06:37:03;;;;;;;5.65;3.33;;;;;;;;;;5032603;28;20232;-72
2023/06/16 06:39:28;;;;;;;5.82;3.83;;;;;;;;;;5028203;28;20324;-72
2023/06/16 06:41:54;;;;;;;4.07;3.10;;;;;;;;;;5031335;28;20209;-72
2023/06/16 06:44:19;;;;;;;4.18;2.90;;;;;;;;;;5033084;28;20787;-72
2023/06/16 06:46:45;;;;;;;6.10;3.47;;;;;;;;;;5030935;28;20178;-72
2023/06/16 06:49:10;;;;;;;5.22;3.30;;;;;;;;;;5031269;28;20286;-72
2023/06/16 06:51:35;;;;;;;5.47;3.03;;;;;;;;;;5032318;28;20214;-72
2023/06/16 06:54:01;;;;;;;6.32;3.13;;;;;;;;;;5032030;28;20213;-72
2023/06/16 06:56:26;;;;;;;4.50;3.08;;;;;;;;;;5030094;28;20186;-72
2023/06/16 06:58:51;;;;;;;4.35;3.35;;;;;;;;;;5031962;28;20202;-73
2023/06/16 07:01:16;;;;;;;3.70;2.60;;;;;;;;;;5028095;28;20206;-72
2023/06/16 07:03:42;;;;;;;3.92;2.65;;;;;;;;;;5029492;28;20423;-72
2023/06/16 07:06:07;;;;;;;5.43;3.10;;;;;;;;;;5029482;28;20178;-73
2023/06/16 07:08:32;;;;;;;7.50;3.40;;;;;;;;;;5034029;28;21006;-73
2023/06/16 07:10:58;;;;;;;4.00;2.75;;;;;;;;;;5026091;28;20559;-73
2023/06/16 07:13:23;;;;;;;6.00;2.75;;;;;;;;;;5030616;28;20225;-73
2023/06/16 07:15:48;;;;;;;7.60;3.07;;;;;;;;;;5030609;28;20182;-73
2023/06/16 07:18:13;;;;;;;13.88;2.92;;;;;;;;;;5033136;28;20975;-72
2023/06/16 07:20:39;;;;;;;5.93;3.53;;;;;;;;;;5036056;28;20210;-72
2023/06/16 07:23:04;;;;;;;3.45;3.05;;;;;;;;;;5036488;28;20405;-72
2023/06/16 07:25:32;;;;;;;4.57;2.80;;;;;;;;;;5039274;28;20222;-72
2023/06/16 07:27:57;;;;;;;5.88;2.65;;;;;;;;;;5040881;28;20189;-73
2023/06/16 07:30:22;;;;;;;3.70;2.78;;;;;;;;;;5037441;28;20228;-73
2023/06/16 07:32:49;;;;;;;5.80;3.10;;;;;;;;;;5039048;28;20204;-73
2023/06/16 07:35:14;;;;;;;3.75;3.03;;;;;;;;;;5029154;28;20742;-73
2023/06/16 07:37:40;;;;;;;5.07;2.67;;;;;;;;;;5038016;28;20189;-73
2023/06/16 07:40:08;;;;;;;6.18;3.03;;;;;;;;;;5040979;28;22073;-73
2023/06/16 07:42:33;;;;;;;6.25;2.80;;;;;;;;;;5031081;28;20170;-73
2023/06/16 07:44:58;;;;;;;6.38;2.80;;;;;;;;;;5037361;28;20174;-73
2023/06/16 07:47:23;;;;;;;4.00;3.00;;;;;;;;;;5030732;28;20197;-72
2023/06/16 07:49:49;;;;;;;2.90;2.60;;;;;;;;;;5031626;28;20443;-72
2023/06/16 07:52:15;;;;;;;4.00;3.22;;;;;;;;;;5030288;28;20236;-70
2023/06/16 07:54:43;;;;;;;3.45;2.85;;;;;;;;;;5034628;28;20213;-70
2023/06/16 07:57:08;;;;;;;3.95;2.70;;;;;;;;;;5032674;28;20551;-69
2023/06/16 07:59:33;;;;;;;3.37;2.47;;;;;;;;;;5038205;28;20201;-70
2023/06/16 08:02:00;;;;;;;3.15;2.85;;;;;;;;;;5042516;28;20454;-69
2023/06/16 08:04:29;;;;;;;3.67;2.63;;;;;;;;;;5021206;28;20224;-70
2023/06/16 08:06:54;;;;;;;5.57;2.50;;;;;;;;;;5024171;28;20228;-70
2023/06/16 08:09:19;;;;;;;4.03;2.75;;;;;;;;;;5033422;28;20672;-69
2023/06/16 08:11:44;;;;;;;3.53;2.80;;;;;;;;;;5040020;28;20194;-69
2023/06/16 08:14:10;;;;;;;4.63;2.70;;;;;;;;;;5036321;28;20438;-70
2023/06/16 08:16:35;;;;;;;3.97;2.42;;;;;;;;;;5034997;28;20567;-70
2023/06/16 08:19:00;;;;;;;3.60;2.60;;;;;;;;;;5030596;28;20248;-70
2023/06/16 08:21:26;;;;;;;3.50;2.67;;;;;;;;;;5035190;28;20318;-70
2023/06/16 08:23:52;;;;;;;3.08;2.38;;;;;;;;;;5028024;28;20514;-70
2023/06/16 08:26:17;;;;;;;4.28;2.40;;;;;;;;;;5030530;28;20190;-70
2023/06/16 08:28:42;;;;;;;4.30;2.30;;;;;;;;;;5029529;28;20194;-70
2023/06/16 08:31:08;;;;;;;2.88;2.58;;;;;;;;;;5036894;28;20431;-70
2023/06/16 08:33:33;;;;;;;3.13;2.17;;;;;;;;;;5031163;28;20177;-69
2023/06/16 08:35:58;;;;;;;3.58;2.67;;;;;;;;;;5034404;28;20440;-69
2023/06/16 08:38:23;;;;;;;2.38;2.17;;;;;;;;;;5031190;28;20563;-69
2023/06/16 08:40:49;;;;;;;3.60;2.70;;;;;;;;;;5028794;28;20218;-69
2023/06/16 08:43:15;;;;;;;3.67;2.60;;;;;;;;;;5031978;28;20185;-70
2023/06/16 08:45:40;;;;;;;2.97;2.50;;;;;;;;;;5036603;28;20181;-72
2023/06/16 08:48:06;;;;;;;3.47;2.50;;;;;;;;;;5030264;28;20194;-70
2023/06/16 08:50:32;;;;;;;5.97;2.72;;;;;;;;;;5031779;28;20205;-70
2023/06/16 08:52:58;;;;;;;2.42;2.08;;;;;;;;;;5038447;28;20184;-70
2023/06/16 08:55:25;;;;;;;3.25;2.40;;;;;;;;;;5032218;28;20170;-69
2023/06/16 08:57:51;;;;;;;5.05;2.30;;;;;;;;;;5033047;28;20194;-70
2023/06/16 09:00:17;;;;;;;4.35;2.53;;;;;;;;;;5036223;28;20202;-70
2023/06/16 09:02:48;;;;;;;5.47;2.30;;;;;;;;;;5030266;28;21026;-69
2023/06/16 09:05:13;;;;;;;2.55;2.10;;;;;;;;;;5031873;28;20566;-69
2023/06/16 09:07:42;;;;;;;4.78;2.40;;;;;;;;;;5023522;28;20269;-70
2023/06/16 09:10:07;;;;;;;2.67;2.30;;;;;;;;;;5028478;28;20209;-70
2023/06/16 09:12:35;;;;;;;4.72;2.33;;;;;;;;;;5034270;28;20201;-68
2023/06/16 09:15:01;;;;;;;3.10;2.50;;;;;;;;;;5032598;28;20310;-70
2023/06/16 09:17:30;;;;;;;2.78;2.33;;;;;;;;;;5033019;28;20314;-70
2023/06/16 09:19:55;;;;;;;3.78;2.80;;;;;;;;;;5032264;28;20194;-70
2023/06/16 09:22:23;;;;;;;4.68;2.30;;;;;;;;;;5043031;28;20173;-70
2023/06/16 09:24:59;;;;;;;8.18;2.70;;;;;;;;;;5032350;28;20185;-70
2023/06/16 09:27:40;;;;;;;2.47;2.28;;;;;;;;;;5031965;28;20174;-70
2023/06/16 09:30:05;;;;;;;2.90;2.50;;;;;;;;;;5030922;28;20166;-70
2023/06/16 09:32:37;;;;;;;3.47;2.50;;;;;;;;;;5031495;28;20224;-70
2023/06/16 09:35:16;;;;;;;4.75;2.63;;;;;;;;;;5030928;28;21094;-70
2023/06/16 09:37:41;;;;;;;4.60;2.70;;;;;;;;;;5029342;28;20174;-69
2023/06/16 09:40:09;;;;;;;3.45;2.17;;;;;;;;;;5032201;28;20197;-70
2023/06/16 09:42:34;;;;;;;2.78;2.30;;;;;;;;;;5032657;28;20174;-68
2023/06/16 09:44:59;;;;;;;3.47;2.55;;;;;;;;;;5026761;28;20411;-68
2023/06/16 09:47:25;;;;;;;4.43;2.60;;;;;;;;;;5043699;28;20193;-68
2023/06/16 09:49:52;;;;;;;2.50;2.30;;;;;;;;;;5028254;28;20439;-69
2023/06/16 09:52:17;;;;;;;4.60;2.55;;;;;;;;;;5044259;28;20220;-70
2023/06/16 09:54:43;;;;;;;2.73;2.50;;;;;;;;;;5023154;28;20331;-70
2023/06/16 09:57:08;;;;;;;3.45;2.50;;;;;;;;;;5025160;28;20488;-71
2023/06/16 09:59:34;;;;;;;4.75;3.50;;;;;;;;;;5027787;28;20686;-70
2023/06/16 10:01:59;;;;;;;3.00;2.50;;;;;;;;;;5027199;28;20296;-67
2023/06/16 10:04:24;;;;;;;3.13;2.83;;;;;;;;;;5028316;28;20455;-69
2023/06/16 10:06:49;;;;;;;3.80;2.60;;;;;;;;;;5037962;28;20177;-70
2023/06/16 10:09:17;;;;;;;3.10;2.73;;;;;;;;;;5027335;28;20227;-70
2023/06/16 10:11:43;;;;;;;2.40;2.10;;;;;;;;;;5031328;28;20178;-70
2023/06/16 10:14:09;;;;;;;3.83;2.83;;;;;;;;;;5033178;28;20200;-69
2023/06/16 10:16:36;;;;;;;4.43;2.60;;;;;;;;;;5030994;28;20197;-70
2023/06/16 10:19:02;;;;;;;3.58;2.65;;;;;;;;;;5030132;28;20217;-70
2023/06/16 10:21:28;;;;;;;3.08;2.45;;;;;;;;;;5032151;28;20202;-72
2023/06/16 10:23:53;;;;;;;2.40;2.20;;;;;;;;;;5032556;28;20196;-70
2023/06/16 10:26:19;;;;;;;3.45;2.75;;;;;;;;;;5033056;28;20173;-70
2023/06/16 10:28:44;;;;;;;3.28;2.40;;;;;;;;;;5028268;28;20198;-69
2023/06/16 10:31:11;;;;;;;3.35;2.38;;;;;;;;;;5031622;28;20184;-70
2023/06/16 10:33:55;;;;;;;2.60;2.33;;;;;;;;;;5031831;28;20216;-69
2023/06/16 10:36:22;;;;;;;3.17;2.53;;;;;;;;;;5025911;28;20196;-69
2023/06/16 10:38:55;;;;;;;2.70;2.40;;;;;;;;;;5020710;28;20213;-68
2023/06/16 10:41:20;;;;;;;2.50;2.30;;;;;;;;;;5029607;28;20194;-70
2023/06/16 10:43:45;;;;;;;4.17;2.60;;;;;;;;;;5027544;28;20534;-69
2023/06/16 10:46:18;;;;;;;3.00;2.40;;;;;;;;;;5031548;28;20995;-70
2023/06/16 10:49:02;;;;;;;2.88;2.58;;;;;;;;;;5028911;28;21028;-69
2023/06/16 10:51:45;;;;;;;3.38;2.30;;;;;;;;;;5031847;28;20268;-70
2023/06/16 10:54:12;;;;;;;2.45;2.10;;;;;;;;;;5026908;28;20201;-69
2023/06/16 10:56:56;;;;;;;2.70;2.22;;;;;;;;;;5031761;28;20182;-69
2023/06/16 10:59:22;;;;;;;4.80;2.90;;;;;;;;;;5029833;28;20343;-69
2023/06/16 11:01:49;;;;;;;2.45;2.25;;;;;;;;;;5027524;28;20205;-69
2023/06/16 11:04:15;;;;;;;2.60;2.40;;;;;;;;;;5020823;28;20189;-69
2023/06/16 11:06:59;;;;;;;4.43;2.90;;;;;;;;;;5030392;28;20256;-70
2023/06/16 11:09:28;;;;;;;8.75;2.58;;;;;;;;;;5037986;28;20439;-69
2023/06/16 11:11:57;;;;;;;3.35;2.67;;;;;;;;;;5028042;28;20188;-69
2023/06/16 11:14:22;;;;;;;3.15;2.85;;;;;;;;;;5039183;28;20178;-70
2023/06/16 11:16:48;;;;;;;5.00;2.45;;;;;;;;;;5026032;28;20647;-69
2023/06/16 11:19:16;;;;;;;2.80;2.60;;;;;;;;;;5034453;28;20220;-70
2023/06/16 11:21:42;;;;;;;3.58;3.13;;;;;;;;;;5025022;28;20259;-69
2023/06/16 11:24:08;;;;;;;3.17;2.88;;;;;;;;;;5027726;28;20181;-69
2023/06/16 11:26:34;;;;;;;3.92;3.00;;;;;;;;;;5031666;28;20178;-69
2023/06/16 11:28:59;;;;;;;2.25;2.05;;;;;;;;;;5036962;28;20193;-68
2023/06/16 11:31:25;;;;;;;2.80;2.50;;;;;;;;;;5033759;28;20817;-70
2023/06/16 11:33:53;;;;;;;2.95;2.33;;;;;;;;;;5036482;28;20223;-69
2023/06/16 11:36:19;;;;;;;3.80;3.08;;;;;;;;;;5031140;28;20579;-71
2023/06/16 11:38:45;;;;;;;2.88;2.35;;;;;;;;;;5033227;28;20174;-69
2023/06/16 11:41:14;;;;;;;3.05;2.58;;;;;;;;;;5032766;28;20205;-69
2023/06/16 11:43:39;;;;;;;3.25;2.50;;;;;;;;;;5029834;28;20221;-70
2023/06/16 11:46:04;;;;;;;3.77;2.87;;;;;;;;;;5025697;28;20177;-69
2023/06/16 11:48:29;;;;;;;3.33;2.30;;;;;;;;;;5032987;28;20204;-70
2023/06/16 11:50:55;;;;;;;5.03;3.00;;;;;;;;;;5021096;28;20427;-70
2023/06/16 11:53:21;;;;;;;4.93;2.65;;;;;;;;;;5027955;28;20418;-70
2023/06/16 11:55:53;;;;;;;3.50;2.63;;;;;;;;;;5033395;28;20584;-70
2023/06/16 11:58:18;;;;;;;4.00;2.70;;;;;;;;;;5032420;28;20255;-70
2023/06/16 12:00:45;;;;;;;3.03;2.23;;;;;;;;;;5032193;28;20190;-70
2023/06/16 12:03:10;;;;;;;2.53;2.33;;;;;;;;;;5032657;28;20395;-70
2023/06/16 12:05:36;;;;;;;2.70;2.50;;;;;;;;;;5035569;28;20172;-70
2023/06/16 12:08:02;;;;;;;4.13;2.63;;;;;;;;;;5033132;28;20190;-70
2023/06/16 12:10:27;;;;;;;4.65;3.17;;;;;;;;;;5030294;28;20178;-69
2023/06/16 12:12:53;;;;;;;4.55;2.35;;;;;;;;;;5032133;28;20268;-72
2023/06/16 12:15:19;;;;;;;3.03;2.70;;;;;;;;;;5033085;28;20557;-70
2023/06/16 12:20:21;;;;;;;3.47;2.50;;;;;;;;;;5069487;28;20278;-77
2023/06/16 12:22:46;;;;;;;3.90;2.55;;;;;;;;;;5074936;28;20171;-78
2023/06/16 12:25:13;;;;;;;2.92;2.55;;;;;;;;;;5074276;28;20187;-77
2023/06/16 12:27:38;;;;;;;4.05;2.35;;;;;;;;;;5070511;28;20176;-78
2023/06/16 12:30:04;;;;;;;3.85;2.63;;;;;;;;;;5073898;28;20203;-78
2023/06/16 12:32:33;;;;;;;4.28;2.63;;;;;;;;;;5071465;28;20234;-78
2023/06/16 12:34:59;;;;;;;3.20;2.83;;;;;;;;;;5069795;28;20265;-78
2023/06/16 12:37:25;;;;;;;3.42;3.15;;;;;;;;;;5069370;28;20517;-78
2023/06/16 12:39:57;;;;;;;3.08;2.78;;;;;;;;;;5070900;28;20204;-77
2023/06/16 12:42:25;;;;;;;3.33;2.92;;;;;;;;;;5073382;28;20303;-78
2023/06/16 12:44:53;;;;;;;4.30;2.90;;;;;;;;;;5069917;28;20172;-77
2023/06/16 12:47:20;;;;;;;3.25;2.63;;;;;;;;;;5067100;28;20551;-78
2023/06/16 12:49:45;;;;;;;5.25;3.03;;;;;;;;;;5075319;28;20241;-78
2023/06/16 12:52:11;;;;;;;3.17;2.78;;;;;;;;;;5072688;28;20176;-78
2023/06/16 12:54:37;;;;;;;3.53;2.47;;;;;;;;;;5071191;28;20203;-78
2023/06/16 12:57:02;;;;;;;3.97;2.50;;;;;;;;;;5071081;28;20220;-78
2023/06/16 12:59:28;;;;;;;2.95;2.30;;;;;;;;;;5068243;28;20207;-78
2023/06/16 13:01:54;;;;;;;4.72;2.50;;;;;;;;;;5067923;28;20200;-79
2023/06/16 13:04:19;;;;;;;3.63;2.75;;;;;;;;;;5074531;28;20172;-78
2023/06/16 13:06:44;;;;;;;2.92;2.67;;;;;;;;;;5075123;28;20180;-79
2023/06/16 13:09:09;;;;;;;3.17;2.33;;;;;;;;;;5074609;28;20224;-78
2023/06/16 13:11:35;;;;;;;3.00;2.50;;;;;;;;;;5074790;28;20208;-79
2023/06/16 13:14:02;;;;;;;3.40;2.35;;;;;;;;;;5075268;28;20168;-78
2023/06/16 13:16:27;;;;;;;4.20;2.45;;;;;;;;;;5084313;28;20179;-78
2023/06/16 13:18:52;;;;;;;3.03;2.13;;;;;;;;;;5091833;28;20307;-79
2023/06/16 13:21:17;;;;;;;2.43;2.23;;;;;;;;;;5108599;28;20219;-79
2023/06/16 13:23:43;;;;;;;2.70;2.50;;;;;;;;;;5079211;28;20445;-78
2023/06/16 13:26:13;;;;;;;3.08;1.98;;;;;;;;;;5074685;28;20195;-78
2023/06/16 13:28:40;;;;;;;5.32;2.67;;;;;;;;;;5071924;28;20267;-78
2023/06/16 13:31:07;;;;;;;3.85;2.70;;;;;;;;;;5066932;28;20231;-78
2023/06/16 13:33:33;;;;;;;2.83;2.42;;;;;;;;;;5073832;28;20165;-78
2023/06/16 13:35:58;;;;;;;2.67;2.33;;;;;;;;;;5068960;28;20234;-79
2023/06/16 13:38:24;;;;;;;3.15;2.70;;;;;;;;;;5067363;28;20200;-78
2023/06/16 13:40:49;;;;;;;3.80;2.55;;;;;;;;;;5073083;28;20266;-79
2023/06/16 13:43:14;;;;;;;2.72;2.35;;;;;;;;;;5072952;28;20230;-78
2023/06/16 13:45:39;;;;;;;2.63;2.27;;;;;;;;;;5075983;28;20178;-77
2023/06/16 13:48:05;;;;;;;6.33;2.60;;;;;;;;;;5078032;28;20199;-78
2023/06/16 13:50:30;;;;;;;3.07;2.50;;;;;;;;;;5070747;28;20196;-78
2023/06/16 13:52:55;;;;;;;4.43;3.07;;;;;;;;;;5068524;28;20180;-77
2023/06/16 13:55:20;;;;;;;4.43;2.63;;;;;;;;;;5072647;28;20416;-79
2023/06/16 13:57:46;;;;;;;2.57;2.37;;;;;;;;;;5072244;28;20180;-78
2023/06/16 14:00:11;;;;;;;3.03;2.60;;;;;;;;;;5065021;28;20478;-78
2023/06/16 14:02:36;;;;;;;2.85;2.45;;;;;;;;;;5068033;28;20569;-78
2023/06/16 14:05:01;;;;;;;5.27;2.40;;;;;;;;;;5073763;28;20168;-78
2023/06/16 14:07:27;;;;;;;4.03;2.73;;;;;;;;;;5074225;28;20198;-78
2023/06/16 14:09:52;;;;;;;4.03;2.50;;;;;;;;;;5065928;28;20513;-78
2023/06/16 14:12:17;;;;;;;2.93;2.60;;;;;;;;;;5068955;28;20429;-78
2023/06/16 14:14:42;;;;;;;4.00;2.70;;;;;;;;;;5069563;28;20467;-78
2023/06/16 14:17:07;;;;;;;5.80;3.33;;;;;;;;;;5067008;28;20433;-78
2023/06/16 14:19:33;;;;;;;2.80;2.53;;;;;;;;;;5067577;28;20452;-78
2023/06/16 14:21:58;;;;;;;3.27;2.40;;;;;;;;;;5065571;28;20204;-78
2023/06/16 14:24:23;;;;;;;2.53;2.13;;;;;;;;;;5069926;28;20179;-78
2023/06/16 14:26:48;;;;;;;3.83;2.83;;;;;;;;;;5072911;28;20575;-77
2023/06/16 14:29:13;;;;;;;5.57;2.57;;;;;;;;;;5070159;28;20188;-77
2023/06/16 14:31:39;;;;;;;4.00;2.70;;;;;;;;;;5070523;28;20462;-76
2023/06/16 14:34:04;;;;;;;3.23;2.77;;;;;;;;;;5071427;28;20205;-77
2023/06/16 14:36:29;;;;;;;4.83;2.50;;;;;;;;;;5065684;28;20180;-77
2023/06/16 14:38:55;;;;;;;4.88;3.28;;;;;;;;;;5079140;28;20454;-77
2023/06/16 14:41:20;;;;;;;4.18;2.60;;;;;;;;;;5068994;28;20204;-78
2023/06/16 14:43:45;;;;;;;4.97;2.90;;;;;;;;;;5069855;28;20222;-78